createdAt,value
2018-08-28T00:00:09.092Z,99.90
2018-08-28T00:02:38.546Z,99.90
2018-08-28T00:05:08.226Z,99.90
2018-08-28T00:07:37.806Z,99.90
2018-08-28T00:10:07.727Z,99.90
2018-08-28T00:12:37.626Z,99.90
2018-08-28T00:15:07.446Z,99.90
2018-08-28T00:17:37.067Z,99.90
2018-08-28T00:20:06.586Z,99.90
2018-08-28T00:22:36.542Z,99.90
2018-08-28T00:25:06.230Z,99.90
2018-08-28T00:27:35.866Z,99.90
2018-08-28T00:30:05.426Z,99.90
2018-08-28T00:32:35.147Z,99.90
2018-08-28T00:35:04.746Z,99.90
2018-08-28T00:37:34.507Z,99.90
2018-08-28T00:40:04.323Z,99.90
2018-08-28T00:42:34.067Z,99.90
2018-08-28T00:45:03.567Z,99.90
2018-08-28T00:47:33.504Z,99.90
2018-08-28T00:50:03.327Z,99.90
2018-08-28T00:52:33.267Z,99.90
2018-08-28T00:55:02.726Z,99.90
2018-08-28T00:57:32.127Z,99.90
2018-08-28T01:00:01.709Z,99.90
2018-08-28T01:02:31.266Z,99.90
2018-08-28T01:05:00.787Z,99.90
2018-08-28T01:07:30.286Z,99.90
2018-08-28T01:09:59.773Z,99.90
2018-08-28T01:12:29.714Z,99.90
2018-08-28T01:14:59.166Z,99.90
2018-08-28T01:17:28.706Z,99.90
2018-08-28T01:19:58.266Z,99.90
2018-08-28T01:22:27.750Z,99.90
2018-08-28T01:24:57.668Z,99.90
2018-08-28T01:27:27.150Z,99.90
2018-08-28T01:29:56.586Z,99.90
2018-08-28T01:32:26.107Z,99.90
2018-08-28T01:34:55.806Z,99.90
2018-08-28T01:37:25.447Z,99.90
2018-08-28T01:39:55.587Z,99.90
2018-08-28T01:42:25.526Z,99.90
2018-08-28T01:44:55.066Z,99.90
2018-08-28T01:47:24.566Z,99.90
2018-08-28T01:49:53.926Z,99.90
2018-08-28T01:52:23.487Z,99.90
2018-08-28T01:54:52.951Z,99.90
2018-08-28T01:57:22.427Z,99.90
2018-08-28T01:59:51.887Z,99.90
2018-08-28T02:02:21.283Z,99.90
2018-08-28T02:04:50.849Z,99.90
2018-08-28T02:07:20.347Z,99.90
2018-08-28T02:09:49.827Z,99.90
2018-08-28T02:12:19.346Z,99.90
2018-08-28T02:14:48.867Z,99.90
2018-08-28T02:17:18.306Z,99.90
2018-08-28T02:19:47.886Z,99.90
2018-08-28T02:22:17.367Z,99.90
2018-08-28T02:24:47.403Z,99.90
2018-08-28T02:27:16.986Z,99.90
2018-08-28T02:29:46.742Z,99.90
2018-08-28T02:32:16.727Z,99.90
2018-08-28T02:34:46.247Z,99.90
2018-08-28T02:37:15.826Z,99.90
2018-08-28T02:39:45.666Z,99.90
2018-08-28T02:42:15.186Z,99.90
2018-08-28T02:44:44.886Z,99.90
2018-08-28T02:47:14.367Z,99.90
2018-08-28T02:49:44.099Z,99.90
2018-08-28T02:52:14.026Z,99.90
2018-08-28T02:54:43.748Z,99.90
2018-08-28T02:57:13.247Z,99.90
2018-08-28T02:59:42.762Z,99.90
2018-08-28T03:02:12.234Z,99.90
2018-08-28T03:04:41.637Z,99.90
2018-08-28T03:07:11.113Z,99.90
2018-08-28T03:09:41.195Z,99.90
2018-08-28T03:12:11.033Z,99.90
2018-08-28T03:14:40.933Z,99.90
2018-08-28T03:17:10.715Z,99.90
2018-08-28T03:19:40.733Z,99.90
2018-08-28T03:22:10.594Z,99.90
2018-08-28T03:24:40.053Z,99.90
2018-08-28T03:27:09.853Z,99.90
2018-08-28T03:29:39.614Z,99.90
2018-08-28T03:32:09.280Z,99.90
2018-08-28T03:34:39.298Z,99.90
2018-08-28T03:37:08.895Z,99.90
2018-08-28T03:39:38.593Z,99.90
2018-08-28T03:42:08.113Z,99.90
2018-08-28T03:44:37.541Z,99.90
2018-08-28T03:47:07.133Z,99.90
2018-08-28T03:49:37.113Z,99.90
2018-08-28T03:52:06.653Z,99.90
2018-08-28T03:54:36.333Z,99.90
2018-08-28T03:57:05.894Z,99.90
2018-08-28T03:59:35.794Z,99.90
2018-08-28T04:02:05.674Z,99.90
2018-08-28T04:04:35.197Z,99.90
2018-08-28T04:07:04.792Z,99.90
2018-08-28T04:09:34.553Z,99.90
2018-08-28T04:12:04.414Z,99.90
2018-08-28T04:14:33.993Z,99.90
2018-08-28T04:17:03.689Z,99.90
2018-08-28T04:19:33.194Z,99.90
2018-08-28T04:22:02.794Z,99.90
2018-08-28T04:24:32.337Z,99.90
2018-08-28T04:27:02.334Z,99.90
2018-08-28T04:29:31.774Z,99.90
2018-08-28T04:32:01.297Z,99.90
2018-08-28T04:34:31.533Z,99.90
2018-08-28T04:37:01.116Z,99.90
2018-08-28T04:39:30.594Z,99.90
2018-08-28T04:42:00.114Z,99.90
2018-08-28T04:44:29.494Z,99.90
2018-08-28T04:46:59.354Z,99.90
2018-08-28T04:49:29.014Z,99.90
2018-08-28T04:51:58.454Z,99.90
2018-08-28T04:54:27.935Z,99.90
2018-08-28T04:56:57.418Z,99.90
2018-08-28T04:59:26.914Z,99.90
2018-08-28T05:01:56.455Z,99.90
2018-08-28T05:04:25.994Z,99.90
2018-08-28T05:06:55.474Z,99.90
2018-08-28T05:09:24.896Z,99.90
2018-08-28T05:11:54.492Z,99.90
2018-08-28T05:14:24.034Z,99.90
2018-08-28T05:16:53.455Z,99.90
2018-08-28T05:19:22.991Z,99.90
2018-08-28T05:21:53.015Z,99.90
2018-08-28T05:24:22.514Z,99.90
2018-08-28T05:26:52.134Z,99.90
2018-08-28T05:29:21.655Z,99.90
2018-08-28T05:31:51.195Z,99.90
2018-08-28T05:34:21.055Z,99.90
2018-08-28T05:36:50.695Z,99.90
2018-08-28T05:39:20.155Z,99.90
2018-08-28T05:41:49.654Z,99.90
2018-08-28T05:44:19.355Z,99.90
2018-08-28T05:46:49.088Z,99.90
2018-08-28T05:49:18.568Z,99.90
2018-08-28T05:51:48.117Z,99.90
2018-08-28T05:54:18.015Z,99.90
2018-08-28T05:56:47.594Z,99.90
2018-08-28T05:59:17.114Z,99.90
2018-08-28T06:01:46.629Z,99.90
2018-08-28T06:04:16.155Z,99.90
2018-08-28T06:06:45.523Z,99.90
2018-08-28T06:09:15.134Z,99.90
2018-08-28T06:11:44.594Z,99.90
2018-08-28T06:14:14.434Z,99.90
2018-08-28T06:16:44.015Z,99.90
2018-08-28T06:19:14.115Z,99.90
2018-08-28T06:21:43.914Z,99.90
2018-08-28T06:24:13.554Z,99.90
2018-08-28T06:26:43.515Z,99.90
2018-08-28T06:29:13.134Z,99.90
2018-08-28T06:31:42.674Z,99.90
2018-08-28T06:34:12.197Z,99.90
2018-08-28T06:36:41.744Z,99.90
2018-08-28T06:39:11.634Z,99.90
2018-08-28T06:41:41.775Z,99.90
2018-08-28T06:44:11.384Z,99.90
2018-08-28T06:46:41.594Z,99.90
2018-08-28T06:49:11.395Z,99.90
2018-08-28T06:51:40.955Z,99.90
2018-08-28T06:54:10.616Z,99.90
2018-08-28T06:56:40.503Z,99.90
2018-08-28T06:59:10.256Z,99.90
2018-08-28T07:01:39.797Z,99.90
2018-08-28T07:04:09.374Z,99.90
2018-08-28T07:06:39.655Z,99.90
2018-08-28T07:09:09.414Z,99.90
2018-08-28T07:11:38.948Z,99.90
2018-08-28T07:14:08.474Z,99.90
2018-08-28T07:16:37.974Z,99.90
2018-08-28T07:19:07.637Z,99.90
2018-08-28T07:21:37.119Z,99.90
2018-08-28T07:24:07.494Z,99.90
2018-08-28T07:26:37.114Z,99.90
2018-08-28T07:29:06.694Z,99.90
2018-08-28T07:31:36.528Z,99.90
2018-08-28T07:34:06.674Z,99.90
2018-08-28T07:36:36.214Z,99.90
2018-08-28T07:39:13.515Z,99.90
2018-08-28T07:41:43.369Z,99.90
2018-08-28T07:44:12.955Z,99.90
2018-08-28T07:46:42.495Z,99.90
2018-08-28T07:49:12.029Z,99.90
2018-08-28T07:51:41.695Z,99.90
2018-08-28T07:54:11.315Z,99.90
2018-08-28T07:56:40.958Z,99.90
2018-08-28T07:59:10.455Z,99.90
2018-08-28T08:01:39.875Z,99.90
2018-08-28T08:04:09.475Z,99.90
2018-08-28T08:06:38.996Z,99.90
2018-08-28T08:09:10.696Z,99.90
2018-08-28T08:11:40.455Z,99.90
2018-08-28T08:14:09.955Z,99.90
2018-08-28T08:16:39.436Z,99.90
2018-08-28T08:19:08.895Z,99.90
2018-08-28T08:21:38.694Z,99.90
2018-08-28T08:24:08.475Z,99.90
2018-08-28T08:26:38.204Z,99.90
2018-08-28T08:29:08.235Z,99.90
2018-08-28T08:31:38.697Z,99.90
2018-08-28T08:34:08.815Z,99.90
2018-08-28T08:36:38.975Z,99.90
2018-08-28T08:39:10.633Z,99.90
2018-08-28T08:41:40.514Z,99.90
2018-08-28T08:44:10.315Z,99.90
2018-08-28T08:46:40.195Z,99.90
2018-08-28T08:49:09.694Z,99.90
2018-08-28T08:51:39.274Z,99.90
2018-08-28T08:54:09.075Z,99.90
2018-08-28T08:56:38.734Z,99.90
2018-08-28T08:59:08.554Z,99.90
2018-08-28T09:01:38.235Z,99.90
2018-08-28T09:04:08.294Z,99.90
2018-08-28T09:06:37.814Z,99.90
2018-08-28T09:09:08.074Z,99.90
2018-08-28T09:11:37.555Z,99.90
2018-08-28T09:14:07.715Z,99.90
2018-08-28T09:16:37.595Z,99.90
2018-08-28T09:19:07.134Z,99.90
2018-08-28T09:21:36.515Z,99.90
2018-08-28T09:24:06.077Z,99.90
2018-08-28T09:26:35.595Z,99.90
2018-08-28T09:29:05.515Z,99.90
2018-08-28T09:31:35.104Z,99.90
2018-08-28T09:34:04.735Z,99.90
2018-08-28T09:36:34.134Z,99.90
2018-08-28T09:39:04.815Z,99.90
2018-08-28T09:41:34.454Z,99.90
2018-08-28T09:44:04.075Z,99.90
2018-08-28T09:46:33.622Z,99.90
2018-08-28T09:49:03.699Z,99.90
2018-08-28T09:51:33.194Z,99.90
2018-08-28T09:54:03.014Z,99.90
2018-08-28T09:56:32.690Z,99.90
2018-08-28T09:59:02.355Z,99.90
2018-08-28T10:01:37.234Z,99.40
2018-08-28T10:04:07.115Z,99.90
2018-08-28T10:06:36.895Z,99.90
2018-08-28T10:09:12.414Z,99.90
2018-08-28T10:11:42.435Z,99.90
2018-08-28T10:14:12.795Z,99.90
2018-08-28T10:16:42.309Z,99.60
2018-08-28T10:19:11.878Z,99.20
2018-08-28T10:21:41.475Z,99.80
2018-08-28T10:24:11.115Z,99.90
2018-08-28T10:26:40.994Z,99.10
2018-08-28T10:29:10.634Z,99.10
2018-08-28T10:31:40.173Z,99.90
2018-08-28T10:34:09.727Z,98.40
2018-08-28T10:36:39.334Z,97.80
2018-08-28T10:39:10.155Z,99.90
2018-08-28T10:41:39.755Z,98.60
2018-08-28T10:44:09.274Z,99.20
2018-08-28T10:46:39.124Z,98.70
2018-08-28T10:49:08.635Z,99.50
2018-08-28T10:51:38.575Z,98.30
2018-08-28T10:54:08.075Z,96.80
2018-08-28T10:56:37.514Z,98.80
2018-08-28T10:59:07.374Z,98.40
2018-08-28T11:01:37.335Z,99.20
2018-08-28T11:04:06.995Z,98.10
2018-08-28T11:06:36.735Z,97.90
2018-08-28T11:09:06.976Z,98.20
2018-08-28T11:11:36.505Z,99.70
2018-08-28T11:14:05.997Z,99.90
2018-08-28T11:16:35.835Z,99.50
2018-08-28T11:19:05.289Z,98.70
2018-08-28T11:21:35.068Z,98.00
2018-08-28T11:24:04.956Z,98.70
2018-08-28T11:26:34.375Z,99.90
2018-08-28T11:29:03.943Z,99.30
2018-08-28T11:31:33.459Z,99.20
2018-08-28T11:34:03.015Z,98.90
2018-08-28T11:36:32.417Z,99.90
2018-08-28T11:39:01.938Z,99.90
2018-08-28T11:41:31.394Z,99.90
2018-08-28T11:44:01.035Z,99.30
2018-08-28T11:46:30.464Z,97.70
2018-08-28T11:49:00.814Z,98.30
2018-08-28T11:51:30.375Z,97.20
2018-08-28T11:54:00.574Z,98.30
2018-08-28T11:56:30.154Z,96.30
2018-08-28T11:58:59.618Z,97.80
2018-08-28T12:01:29.235Z,97.40
2018-08-28T12:03:58.835Z,97.70
2018-08-28T12:06:28.474Z,98.00
2018-08-28T12:08:57.974Z,97.20
2018-08-28T12:11:27.454Z,97.50
2018-08-28T12:13:56.955Z,96.90
2018-08-28T12:16:26.455Z,97.20
2018-08-28T12:18:55.918Z,97.60
2018-08-28T12:21:26.529Z,98.70
2018-08-28T12:23:55.949Z,99.30
2018-08-28T12:26:25.409Z,97.70
2018-08-28T12:28:54.969Z,97.60
2018-08-28T12:31:24.449Z,99.00
2018-08-28T12:33:54.310Z,99.90
2018-08-28T12:36:23.749Z,98.70
2018-08-28T12:38:53.180Z,98.50
2018-08-28T12:41:22.727Z,99.40
2018-08-28T12:43:52.244Z,97.30
2018-08-28T12:46:21.935Z,98.30
2018-08-28T12:48:51.529Z,97.90
2018-08-28T12:51:21.249Z,98.90
2018-08-28T12:53:50.925Z,98.90
2018-08-28T12:56:20.411Z,98.30
2018-08-28T12:58:50.288Z,96.50
2018-08-28T13:01:19.828Z,96.80
2018-08-28T13:03:49.449Z,95.30
2018-08-28T13:06:19.055Z,95.10
2018-08-28T13:08:48.634Z,95.40
2018-08-28T13:11:18.216Z,95.80
2018-08-28T13:13:47.908Z,94.70
2018-08-28T13:16:17.416Z,96.70
2018-08-28T13:18:46.970Z,97.80
2018-08-28T13:21:16.456Z,94.80
2018-08-28T13:23:46.056Z,95.30
2018-08-28T13:26:15.576Z,95.10
2018-08-28T13:28:45.478Z,94.50
2018-08-28T13:31:15.336Z,95.70
2018-08-28T13:33:45.370Z,98.00
2018-08-28T13:36:15.115Z,95.00
2018-08-28T13:38:44.939Z,93.20
2018-08-28T13:41:14.717Z,95.00
2018-08-28T13:43:44.516Z,95.50
2018-08-28T13:46:14.017Z,95.00
2018-08-28T13:48:43.515Z,94.90
2018-08-28T13:51:13.437Z,95.20
2018-08-28T13:53:43.138Z,94.30
2018-08-28T13:56:12.536Z,94.10
2018-08-28T13:58:42.273Z,93.80
2018-08-28T14:01:11.787Z,93.50
2018-08-28T14:03:41.458Z,93.10
2018-08-28T14:06:11.036Z,95.60
2018-08-28T14:08:40.867Z,93.80
2018-08-28T14:11:10.429Z,94.50
2018-08-28T14:13:39.998Z,95.40
2018-08-28T14:16:09.733Z,94.70
2018-08-28T14:18:39.470Z,93.80
2018-08-28T14:21:08.993Z,94.70
2018-08-28T14:23:38.476Z,95.00
2018-08-28T14:26:08.216Z,92.00
2018-08-28T14:28:37.913Z,92.00
2018-08-28T14:31:07.795Z,92.30
2018-08-28T14:33:37.809Z,92.40
2018-08-28T14:36:07.711Z,91.90
2018-08-28T14:38:37.069Z,92.50
2018-08-28T14:41:07.063Z,93.70
2018-08-28T14:43:36.963Z,93.90
2018-08-28T14:46:07.168Z,94.10
2018-08-28T14:48:37.171Z,95.20
2018-08-28T14:51:07.670Z,92.60
2018-08-28T14:53:37.352Z,92.90
2018-08-28T14:56:06.926Z,93.10
2018-08-28T14:58:36.371Z,91.90
2018-08-28T15:01:05.959Z,94.10
2018-08-28T15:03:35.295Z,93.00
2018-08-28T15:06:04.841Z,93.30
2018-08-28T15:08:34.845Z,94.30
2018-08-28T15:11:04.469Z,93.60
2018-08-28T15:13:34.189Z,92.60
2018-08-28T15:16:03.930Z,94.50
2018-08-28T15:18:33.590Z,92.30
2018-08-28T15:21:03.190Z,92.30
2018-08-28T15:23:33.071Z,93.10
2018-08-28T15:26:02.775Z,92.20
2018-08-28T15:28:32.254Z,91.30
2018-08-28T15:31:14.934Z,92.50
2018-08-28T15:33:44.454Z,93.00
2018-08-28T15:36:14.034Z,92.90
2018-08-28T15:38:43.795Z,92.80
2018-08-28T15:41:13.607Z,91.30
2018-08-28T15:43:43.169Z,91.10
2018-08-28T15:46:12.746Z,91.50
2018-08-28T15:48:42.186Z,91.90
2018-08-28T15:51:11.688Z,92.50
2018-08-28T15:53:41.313Z,92.50
2018-08-28T15:56:11.089Z,91.00
2018-08-28T15:58:40.969Z,92.00
2018-08-28T16:01:10.470Z,92.20
2018-08-28T16:03:40.029Z,92.10
2018-08-28T16:06:09.586Z,91.30
2018-08-28T16:08:39.093Z,91.60
2018-08-28T16:11:09.077Z,90.40
2018-08-28T16:13:38.523Z,92.00
2018-08-28T16:16:08.570Z,91.40
2018-08-28T16:18:38.411Z,90.90
2018-08-28T16:21:07.990Z,91.10
2018-08-28T16:23:39.939Z,91.30
2018-08-28T16:26:09.467Z,90.90
2018-08-28T16:28:39.023Z,92.20
2018-08-28T16:31:08.708Z,91.50
2018-08-28T16:33:38.283Z,91.50
2018-08-28T16:36:07.749Z,90.90
2018-08-28T16:38:37.411Z,91.70
2018-08-28T16:41:07.387Z,91.50
2018-08-28T16:43:37.068Z,92.20
2018-08-28T16:46:06.548Z,92.70
2018-08-28T16:48:36.024Z,92.40
2018-08-28T16:51:05.468Z,93.30
2018-08-28T16:53:34.888Z,92.50
2018-08-28T16:56:05.448Z,92.90
2018-08-28T16:58:35.089Z,93.00
2018-08-28T17:01:04.712Z,93.40
2018-08-28T17:03:34.309Z,93.40
2018-08-28T17:06:03.748Z,94.30
2018-08-28T17:08:33.278Z,93.80
2018-08-28T17:11:03.028Z,94.00
2018-08-28T17:13:32.910Z,94.20
2018-08-28T17:16:03.128Z,94.70
2018-08-28T17:18:32.682Z,95.50
2018-08-28T17:21:02.333Z,95.70
2018-08-28T17:23:31.910Z,96.20
2018-08-28T17:26:02.008Z,97.30
2018-08-28T17:28:31.928Z,97.20
2018-08-28T17:31:01.416Z,97.30
2018-08-28T17:33:30.868Z,97.50
2018-08-28T17:36:00.668Z,98.00
2018-08-28T17:38:30.529Z,98.30
2018-08-28T17:41:00.029Z,99.30
2018-08-28T17:43:29.632Z,99.90
2018-08-28T17:45:59.207Z,99.90
2018-08-28T17:48:28.687Z,99.90
2018-08-28T17:50:58.188Z,99.90
2018-08-28T17:53:27.732Z,99.90
2018-08-28T17:55:57.351Z,99.90
2018-08-28T17:58:26.929Z,99.90
2018-08-28T18:00:56.488Z,99.90
2018-08-28T18:03:26.323Z,99.90
2018-08-28T18:05:56.128Z,99.90
2018-08-28T18:08:25.669Z,99.90
2018-08-28T18:10:55.209Z,99.90
2018-08-28T18:13:24.829Z,99.90
2018-08-28T18:15:54.309Z,99.90
2018-08-28T18:18:23.749Z,99.90
2018-08-28T18:20:53.278Z,99.90
2018-08-28T18:23:22.763Z,99.90
2018-08-28T18:25:52.224Z,99.90
2018-08-28T18:28:21.758Z,99.90
2018-08-28T18:30:51.357Z,99.90
2018-08-28T18:33:21.168Z,99.90
2018-08-28T18:35:50.781Z,99.90
2018-08-28T18:38:20.421Z,99.90
2018-08-28T18:40:50.145Z,99.90
2018-08-28T18:43:19.557Z,99.90
2018-08-28T18:45:49.418Z,99.90
2018-08-28T18:48:18.877Z,99.90
2018-08-28T18:50:48.449Z,99.90
2018-08-28T18:53:18.117Z,99.90
2018-08-28T18:55:47.679Z,99.90
2018-08-28T18:58:17.257Z,99.90
2018-08-28T19:00:46.798Z,99.90
2018-08-28T19:03:16.634Z,99.90
2018-08-28T19:05:46.374Z,99.90
2018-08-28T19:08:15.993Z,99.90
2018-08-28T19:10:45.959Z,99.90
2018-08-28T19:13:15.813Z,99.90
2018-08-28T19:15:45.375Z,99.90
2018-08-28T19:18:14.870Z,99.90
2018-08-28T19:20:44.360Z,99.90
2018-08-28T19:23:13.923Z,99.90
2018-08-28T19:25:43.554Z,99.90
2018-08-28T19:28:13.457Z,99.90
2018-08-28T19:30:43.457Z,99.90
2018-08-28T19:33:13.043Z,99.90
2018-08-28T19:35:42.815Z,99.90
2018-08-28T19:38:12.633Z,99.90
2018-08-28T19:40:42.413Z,99.90
2018-08-28T19:43:12.071Z,99.90
2018-08-28T19:45:42.713Z,99.90
2018-08-28T19:48:12.373Z,99.90
2018-08-28T19:50:42.213Z,99.90
2018-08-28T19:53:12.353Z,99.90
2018-08-28T19:55:41.933Z,99.90
2018-08-28T19:58:11.567Z,99.90
2018-08-28T20:00:41.434Z,99.90
2018-08-28T20:03:11.173Z,99.90
2018-08-28T20:05:41.310Z,99.90
2018-08-28T20:08:10.873Z,99.90
2018-08-28T20:10:40.473Z,99.90
2018-08-28T20:13:10.413Z,99.90
2018-08-28T20:15:40.433Z,99.90
2018-08-28T20:18:10.233Z,99.90
2018-08-28T20:20:39.861Z,99.90
2018-08-28T20:23:09.473Z,99.90
2018-08-28T20:25:39.073Z,99.90
2018-08-28T20:28:08.634Z,99.90
2018-08-28T20:30:39.536Z,99.90
2018-08-28T20:33:09.673Z,99.90
2018-08-28T20:35:39.513Z,99.90
2018-08-28T20:38:08.973Z,99.90
2018-08-28T20:40:38.573Z,99.90
2018-08-28T20:43:08.213Z,99.90
2018-08-28T20:45:37.833Z,99.90
2018-08-28T20:48:07.593Z,99.90
2018-08-28T20:50:37.218Z,99.90
2018-08-28T20:53:07.593Z,99.90
2018-08-28T20:55:37.333Z,99.90
2018-08-28T20:58:07.338Z,99.90
2018-08-28T21:00:37.513Z,99.90
2018-08-28T21:03:07.653Z,99.90
2018-08-28T21:05:37.293Z,99.90
2018-08-28T21:08:06.874Z,99.90
2018-08-28T21:10:36.393Z,99.90
2018-08-28T21:13:06.105Z,99.90
2018-08-28T21:15:35.794Z,99.90
2018-08-28T21:18:05.355Z,99.90
2018-08-28T21:20:35.374Z,99.90
2018-08-28T21:23:05.219Z,99.90
2018-08-28T21:25:34.693Z,99.90
2018-08-28T21:28:04.253Z,99.90
2018-08-28T21:30:33.854Z,99.90
2018-08-28T21:33:03.734Z,99.90
2018-08-28T21:35:33.650Z,99.90
2018-08-28T21:38:03.533Z,99.90
2018-08-28T21:40:33.093Z,99.90
2018-08-28T21:43:02.653Z,99.90
2018-08-28T21:45:32.155Z,99.90
2018-08-28T21:48:02.203Z,99.90
2018-08-28T21:50:31.748Z,99.90
2018-08-28T21:53:01.355Z,99.90
2018-08-28T21:55:31.355Z,99.90
2018-08-28T21:58:00.833Z,99.90
2018-08-28T22:00:30.328Z,99.90
2018-08-28T22:03:00.417Z,99.90
2018-08-28T22:05:31.053Z,99.90
2018-08-28T22:08:02.193Z,99.90
2018-08-28T22:10:32.363Z,99.90
2018-08-28T22:13:02.002Z,99.90
2018-08-28T22:15:31.533Z,99.90
2018-08-28T22:18:01.553Z,99.90
2018-08-28T22:20:31.093Z,99.90
2018-08-28T22:23:00.592Z,99.90
2018-08-28T22:25:30.173Z,99.90
2018-08-28T22:28:00.219Z,99.90
2018-08-28T22:30:29.894Z,99.90
2018-08-28T22:32:59.413Z,99.90
2018-08-28T22:35:28.993Z,99.90
2018-08-28T22:37:58.468Z,99.90
2018-08-28T22:40:28.155Z,99.90
2018-08-28T22:42:57.574Z,99.90
2018-08-28T22:45:27.214Z,99.90
2018-08-28T22:47:56.679Z,99.90
2018-08-28T22:50:26.134Z,99.90
2018-08-28T22:52:55.915Z,99.90
2018-08-28T22:55:25.254Z,99.90
2018-08-28T22:57:54.654Z,99.90
2018-08-28T23:00:24.115Z,99.90
2018-08-28T23:02:54.893Z,99.90
2018-08-28T23:05:24.753Z,99.90
2018-08-28T23:07:54.233Z,99.90
2018-08-28T23:10:23.993Z,99.90
2018-08-28T23:12:53.373Z,99.90
2018-08-28T23:15:22.873Z,99.90
2018-08-28T23:17:52.415Z,99.90
2018-08-28T23:20:21.814Z,99.90
2018-08-28T23:22:51.275Z,99.90
2018-08-28T23:25:20.773Z,99.90
2018-08-28T23:27:50.273Z,99.90
2018-08-28T23:30:20.153Z,99.90
2018-08-28T23:32:49.713Z,99.90
2018-08-28T23:35:19.194Z,99.90
2018-08-28T23:37:48.675Z,99.90
2018-08-28T23:40:18.133Z,99.90
2018-08-28T23:42:47.733Z,99.90
2018-08-28T23:45:17.153Z,99.90
2018-08-28T23:47:46.668Z,99.90
2018-08-28T23:50:16.573Z,99.90
2018-08-28T23:52:46.483Z,99.90
2018-08-28T23:55:16.033Z,99.90
2018-08-28T23:57:45.553Z,99.90
